sensor_id;sensor_type;location;lat;lon;timestamp;P1;durP1;ratioP1;P2;durP2;ratioP2
65737;SDS011;52478;51.844;6.582;2023-01-08T00:00:31;5.25;;;2.10;;
65737;SDS011;52478;51.844;6.582;2023-01-08T00:02:58;5.25;;;2.10;;
65737;SDS011;52478;51.844;6.582;2023-01-08T00:05:24;5.55;;;2.20;;
65737;SDS011;52478;51.844;6.582;2023-01-08T00:07:52;4.90;;;2.08;;
65737;SDS011;52478;51.844;6.582;2023-01-08T00:10:19;5.53;;;2.22;;
65737;SDS011;52478;51.844;6.582;2023-01-08T00:12:45;5.65;;;2.00;;
65737;SDS011;52478;51.844;6.582;2023-01-08T00:15:11;5.82;;;1.98;;
65737;SDS011;52478;51.844;6.582;2023-01-08T00:17:38;5.20;;;2.38;;
65737;SDS011;52478;51.844;6.582;2023-01-08T00:20:05;5.25;;;1.75;;
65737;SDS011;52478;51.844;6.582;2023-01-08T00:22:32;5.82;;;2.10;;
65737;SDS011;52478;51.844;6.582;2023-01-08T00:24:59;5.00;;;2.10;;
65737;SDS011;52478;51.844;6.582;2023-01-08T00:27:26;5.18;;;2.05;;
65737;SDS011;52478;51.844;6.582;2023-01-08T00:29:52;5.32;;;2.25;;
65737;SDS011;52478;51.844;6.582;2023-01-08T00:32:19;4.95;;;2.00;;
65737;SDS011;52478;51.844;6.582;2023-01-08T00:34:45;5.32;;;1.95;;
65737;SDS011;52478;51.844;6.582;2023-01-08T00:37:12;5.13;;;1.98;;
65737;SDS011;52478;51.844;6.582;2023-01-08T00:39:39;5.60;;;2.10;;
65737;SDS011;52478;51.844;6.582;2023-01-08T00:42:06;5.13;;;2.05;;
65737;SDS011;52478;51.844;6.582;2023-01-08T00:44:33;4.95;;;1.75;;
65737;SDS011;52478;51.844;6.582;2023-01-08T00:46:59;5.30;;;1.63;;
65737;SDS011;52478;51.844;6.582;2023-01-08T00:49:26;5.97;;;1.85;;
65737;SDS011;52478;51.844;6.582;2023-01-08T00:51:53;4.97;;;1.90;;
65737;SDS011;52478;51.844;6.582;2023-01-08T00:54:19;4.90;;;1.77;;
65737;SDS011;52478;51.844;6.582;2023-01-08T00:56:46;5.10;;;1.75;;
65737;SDS011;52478;51.844;6.582;2023-01-08T00:59:14;4.75;;;1.67;;
65737;SDS011;52478;51.844;6.582;2023-01-08T01:01:40;5.15;;;1.70;;
65737;SDS011;52478;51.844;6.582;2023-01-08T01:06:33;4.78;;;1.98;;
65737;SDS011;52478;51.844;6.582;2023-01-08T01:09:00;5.28;;;2.10;;
65737;SDS011;52478;51.844;6.582;2023-01-08T01:11:26;4.88;;;1.80;;
65737;SDS011;52478;51.844;6.582;2023-01-08T01:13:53;4.85;;;2.00;;
65737;SDS011;52478;51.844;6.582;2023-01-08T01:16:23;4.45;;;1.70;;
65737;SDS011;52478;51.844;6.582;2023-01-08T01:18:50;5.25;;;2.20;;
65737;SDS011;52478;51.844;6.582;2023-01-08T01:21:18;5.03;;;1.70;;
65737;SDS011;52478;51.844;6.582;2023-01-08T01:23:47;4.97;;;1.73;;
65737;SDS011;52478;51.844;6.582;2023-01-08T01:26:14;5.05;;;2.15;;
65737;SDS011;52478;51.844;6.582;2023-01-08T01:28:42;4.70;;;1.77;;
65737;SDS011;52478;51.844;6.582;2023-01-08T01:31:08;5.03;;;1.80;;
65737;SDS011;52478;51.844;6.582;2023-01-08T01:33:38;5.95;;;2.10;;
65737;SDS011;52478;51.844;6.582;2023-01-08T01:36:04;4.90;;;2.00;;
65737;SDS011;52478;51.844;6.582;2023-01-08T01:40:58;4.40;;;1.50;;
65737;SDS011;52478;51.844;6.582;2023-01-08T01:43:32;5.72;;;1.60;;
65737;SDS011;52478;51.844;6.582;2023-01-08T01:46:00;5.00;;;1.63;;
65737;SDS011;52478;51.844;6.582;2023-01-08T01:48:27;5.07;;;1.95;;
65737;SDS011;52478;51.844;6.582;2023-01-08T01:50:55;4.85;;;1.83;;
65737;SDS011;52478;51.844;6.582;2023-01-08T01:53:22;4.70;;;1.80;;
65737;SDS011;52478;51.844;6.582;2023-01-08T01:55:52;4.95;;;1.50;;
65737;SDS011;52478;51.844;6.582;2023-01-08T01:58:19;5.68;;;1.77;;
65737;SDS011;52478;51.844;6.582;2023-01-08T02:00:49;4.65;;;2.22;;
65737;SDS011;52478;51.844;6.582;2023-01-08T02:03:19;5.00;;;1.90;;
65737;SDS011;52478;51.844;6.582;2023-01-08T02:05:49;4.45;;;1.67;;
65737;SDS011;52478;51.844;6.582;2023-01-08T02:08:22;5.20;;;1.98;;
65737;SDS011;52478;51.844;6.582;2023-01-08T02:10:56;5.95;;;1.90;;
65737;SDS011;52478;51.844;6.582;2023-01-08T02:13:28;4.90;;;1.98;;
65737;SDS011;52478;51.844;6.582;2023-01-08T02:16:03;4.78;;;2.08;;
65737;SDS011;52478;51.844;6.582;2023-01-08T02:18:35;5.20;;;1.80;;
65737;SDS011;52478;51.844;6.582;2023-01-08T02:21:07;5.30;;;1.98;;
65737;SDS011;52478;51.844;6.582;2023-01-08T02:23:39;5.20;;;1.50;;
65737;SDS011;52478;51.844;6.582;2023-01-08T02:26:13;5.07;;;1.88;;
65737;SDS011;52478;51.844;6.582;2023-01-08T02:28:44;4.72;;;1.60;;
65737;SDS011;52478;51.844;6.582;2023-01-08T02:31:14;5.22;;;1.98;;
65737;SDS011;52478;51.844;6.582;2023-01-08T02:33:42;5.00;;;1.80;;
65737;SDS011;52478;51.844;6.582;2023-01-08T02:36:12;4.93;;;1.73;;
65737;SDS011;52478;51.844;6.582;2023-01-08T02:38:47;4.63;;;1.67;;
65737;SDS011;52478;51.844;6.582;2023-01-08T02:41:29;4.90;;;1.60;;
65737;SDS011;52478;51.844;6.582;2023-01-08T02:44:01;4.75;;;1.83;;
65737;SDS011;52478;51.844;6.582;2023-01-08T02:46:30;5.47;;;1.92;;
65737;SDS011;52478;51.844;6.582;2023-01-08T02:49:00;4.70;;;1.50;;
65737;SDS011;52478;51.844;6.582;2023-01-08T02:51:32;5.05;;;1.75;;
65737;SDS011;52478;51.844;6.582;2023-01-08T02:54:05;4.60;;;1.90;;
65737;SDS011;52478;51.844;6.582;2023-01-08T02:56:36;5.40;;;1.63;;
65737;SDS011;52478;51.844;6.582;2023-01-08T02:59:07;4.50;;;1.70;;
65737;SDS011;52478;51.844;6.582;2023-01-08T03:01:37;4.63;;;1.88;;
65737;SDS011;52478;51.844;6.582;2023-01-08T03:04:06;4.40;;;1.52;;
65737;SDS011;52478;51.844;6.582;2023-01-08T03:06:36;5.25;;;1.70;;
65737;SDS011;52478;51.844;6.582;2023-01-08T03:09:03;5.00;;;1.80;;
65737;SDS011;52478;51.844;6.582;2023-01-08T03:11:31;4.75;;;2.00;;
65737;SDS011;52478;51.844;6.582;2023-01-08T03:14:06;4.28;;;1.67;;
65737;SDS011;52478;51.844;6.582;2023-01-08T03:16:37;4.90;;;1.92;;
65737;SDS011;52478;51.844;6.582;2023-01-08T03:19:07;4.57;;;1.50;;
65737;SDS011;52478;51.844;6.582;2023-01-08T03:21:37;5.30;;;1.70;;
65737;SDS011;52478;51.844;6.582;2023-01-08T03:24:06;4.30;;;1.50;;
65737;SDS011;52478;51.844;6.582;2023-01-08T03:26:35;5.60;;;2.25;;
65737;SDS011;52478;51.844;6.582;2023-01-08T03:29:04;4.80;;;2.13;;
65737;SDS011;52478;51.844;6.582;2023-01-08T03:31:35;4.68;;;1.70;;
65737;SDS011;52478;51.844;6.582;2023-01-08T03:34:01;4.55;;;2.00;;
65737;SDS011;52478;51.844;6.582;2023-01-08T03:36:30;5.13;;;1.65;;
65737;SDS011;52478;51.844;6.582;2023-01-08T03:39:02;5.43;;;2.20;;
65737;SDS011;52478;51.844;6.582;2023-01-08T03:41:36;5.13;;;1.65;;
65737;SDS011;52478;51.844;6.582;2023-01-08T03:44:02;5.07;;;1.77;;
65737;SDS011;52478;51.844;6.582;2023-01-08T03:46:30;4.93;;;1.55;;
65737;SDS011;52478;51.844;6.582;2023-01-08T03:48:59;4.20;;;1.55;;
65737;SDS011;52478;51.844;6.582;2023-01-08T03:51:26;4.60;;;1.70;;
65737;SDS011;52478;51.844;6.582;2023-01-08T03:53:53;5.13;;;1.88;;
65737;SDS011;52478;51.844;6.582;2023-01-08T03:56:23;5.13;;;1.90;;
65737;SDS011;52478;51.844;6.582;2023-01-08T03:58:51;4.72;;;1.90;;
65737;SDS011;52478;51.844;6.582;2023-01-08T04:01:17;4.75;;;1.63;;
65737;SDS011;52478;51.844;6.582;2023-01-08T04:03:44;5.40;;;1.88;;
65737;SDS011;52478;51.844;6.582;2023-01-08T04:06:10;4.90;;;1.70;;
65737;SDS011;52478;51.844;6.582;2023-01-08T04:08:37;4.22;;;1.50;;
65737;SDS011;52478;51.844;6.582;2023-01-08T04:11:03;4.63;;;1.90;;
65737;SDS011;52478;51.844;6.582;2023-01-08T04:13:30;4.80;;;1.80;;
65737;SDS011;52478;51.844;6.582;2023-01-08T04:15:57;5.18;;;1.80;;
65737;SDS011;52478;51.844;6.582;2023-01-08T04:18:24;4.30;;;1.60;;
65737;SDS011;52478;51.844;6.582;2023-01-08T04:20:50;4.32;;;1.52;;
65737;SDS011;52478;51.844;6.582;2023-01-08T04:23:17;4.53;;;1.52;;
65737;SDS011;52478;51.844;6.582;2023-01-08T04:25:43;7.13;;;2.20;;
65737;SDS011;52478;51.844;6.582;2023-01-08T04:28:09;4.97;;;2.00;;
65737;SDS011;52478;51.844;6.582;2023-01-08T04:30:36;4.55;;;1.85;;
65737;SDS011;52478;51.844;6.582;2023-01-08T04:33:04;4.60;;;1.50;;
65737;SDS011;52478;51.844;6.582;2023-01-08T04:35:30;5.30;;;1.75;;
65737;SDS011;52478;51.844;6.582;2023-01-08T04:37:57;5.22;;;1.80;;
65737;SDS011;52478;51.844;6.582;2023-01-08T04:40:23;4.65;;;1.90;;
65737;SDS011;52478;51.844;6.582;2023-01-08T04:42:49;5.25;;;1.75;;
65737;SDS011;52478;51.844;6.582;2023-01-08T04:45:16;4.15;;;1.90;;
65737;SDS011;52478;51.844;6.582;2023-01-08T04:47:43;4.35;;;1.52;;
65737;SDS011;52478;51.844;6.582;2023-01-08T04:50:11;4.93;;;2.00;;
65737;SDS011;52478;51.844;6.582;2023-01-08T04:52:37;4.30;;;1.40;;
65737;SDS011;52478;51.844;6.582;2023-01-08T04:55:04;4.68;;;1.60;;
65737;SDS011;52478;51.844;6.582;2023-01-08T04:59:58;4.35;;;1.58;;
65737;SDS011;52478;51.844;6.582;2023-01-08T05:02:24;4.72;;;1.70;;
65737;SDS011;52478;51.844;6.582;2023-01-08T05:04:50;5.68;;;1.73;;
65737;SDS011;52478;51.844;6.582;2023-01-08T05:07:18;4.20;;;1.50;;
65737;SDS011;52478;51.844;6.582;2023-01-08T05:09:45;3.78;;;1.50;;
65737;SDS011;52478;51.844;6.582;2023-01-08T05:12:11;5.00;;;1.90;;
65737;SDS011;52478;51.844;6.582;2023-01-08T05:14:37;4.25;;;1.40;;
65737;SDS011;52478;51.844;6.582;2023-01-08T05:17:04;4.47;;;1.83;;
65737;SDS011;52478;51.844;6.582;2023-01-08T05:19:30;5.22;;;1.63;;
65737;SDS011;52478;51.844;6.582;2023-01-08T05:21:57;4.53;;;1.52;;
65737;SDS011;52478;51.844;6.582;2023-01-08T05:24:24;5.00;;;1.88;;
65737;SDS011;52478;51.844;6.582;2023-01-08T05:26:51;3.53;;;1.23;;
65737;SDS011;52478;51.844;6.582;2023-01-08T05:29:17;4.03;;;1.60;;
65737;SDS011;52478;51.844;6.582;2023-01-08T05:31:44;3.60;;;1.33;;
65737;SDS011;52478;51.844;6.582;2023-01-08T05:34:11;4.72;;;1.40;;
65737;SDS011;52478;51.844;6.582;2023-01-08T05:36:37;4.70;;;1.50;;
65737;SDS011;52478;51.844;6.582;2023-01-08T05:39:03;4.00;;;1.40;;
65737;SDS011;52478;51.844;6.582;2023-01-08T05:41:31;3.88;;;1.33;;
65737;SDS011;52478;51.844;6.582;2023-01-08T05:43:58;5.00;;;1.88;;
65737;SDS011;52478;51.844;6.582;2023-01-08T05:48:51;3.90;;;1.30;;
65737;SDS011;52478;51.844;6.582;2023-01-08T05:51:18;4.35;;;1.42;;
65737;SDS011;52478;51.844;6.582;2023-01-08T05:53:44;3.90;;;1.48;;
65737;SDS011;52478;51.844;6.582;2023-01-08T05:56:10;4.78;;;1.40;;
65737;SDS011;52478;51.844;6.582;2023-01-08T05:58:38;4.40;;;1.30;;
65737;SDS011;52478;51.844;6.582;2023-01-08T06:01:05;3.95;;;1.30;;
65737;SDS011;52478;51.844;6.582;2023-01-08T06:03:34;4.20;;;1.33;;
65737;SDS011;52478;51.844;6.582;2023-01-08T06:06:01;3.67;;;1.30;;
65737;SDS011;52478;51.844;6.582;2023-01-08T06:08:30;5.07;;;1.27;;
65737;SDS011;52478;51.844;6.582;2023-01-08T06:10:57;4.53;;;1.52;;
65737;SDS011;52478;51.844;6.582;2023-01-08T06:13:25;4.53;;;1.70;;
65737;SDS011;52478;51.844;6.582;2023-01-08T06:15:53;4.35;;;1.58;;
65737;SDS011;52478;51.844;6.582;2023-01-08T06:18:20;5.25;;;1.63;;
65737;SDS011;52478;51.844;6.582;2023-01-08T06:20:46;4.32;;;1.65;;
65737;SDS011;52478;51.844;6.582;2023-01-08T06:23:13;3.80;;;1.33;;
65737;SDS011;52478;51.844;6.582;2023-01-08T06:25:39;3.78;;;1.25;;
65737;SDS011;52478;51.844;6.582;2023-01-08T06:28:05;4.15;;;1.70;;
65737;SDS011;52478;51.844;6.582;2023-01-08T06:30:32;3.83;;;1.50;;
65737;SDS011;52478;51.844;6.582;2023-01-08T06:33:00;4.28;;;1.70;;
65737;SDS011;52478;51.844;6.582;2023-01-08T06:35:27;3.88;;;1.48;;
65737;SDS011;52478;51.844;6.582;2023-01-08T06:37:53;4.68;;;1.45;;
65737;SDS011;52478;51.844;6.582;2023-01-08T06:40:20;4.20;;;1.58;;
65737;SDS011;52478;51.844;6.582;2023-01-08T06:42:46;4.28;;;1.40;;
65737;SDS011;52478;51.844;6.582;2023-01-08T06:45:13;4.50;;;1.52;;
65737;SDS011;52478;51.844;6.582;2023-01-08T06:47:40;4.72;;;1.63;;
65737;SDS011;52478;51.844;6.582;2023-01-08T06:50:08;3.75;;;1.20;;
65737;SDS011;52478;51.844;6.582;2023-01-08T06:52:35;3.50;;;1.20;;
65737;SDS011;52478;51.844;6.582;2023-01-08T06:55:02;3.80;;;1.40;;
65737;SDS011;52478;51.844;6.582;2023-01-08T06:57:30;4.18;;;1.70;;
65737;SDS011;52478;51.844;6.582;2023-01-08T06:59:56;3.78;;;1.27;;
65737;SDS011;52478;51.844;6.582;2023-01-08T07:02:22;4.65;;;1.40;;
65737;SDS011;52478;51.844;6.582;2023-01-08T07:04:49;4.32;;;1.25;;
65737;SDS011;52478;51.844;6.582;2023-01-08T07:07:17;4.85;;;1.50;;
65737;SDS011;52478;51.844;6.582;2023-01-08T07:09:43;3.83;;;1.42;;
65737;SDS011;52478;51.844;6.582;2023-01-08T07:12:10;4.40;;;1.40;;
65737;SDS011;52478;51.844;6.582;2023-01-08T07:14:38;3.88;;;1.38;;
65737;SDS011;52478;51.844;6.582;2023-01-08T07:17:04;3.72;;;1.27;;
65737;SDS011;52478;51.844;6.582;2023-01-08T07:19:31;4.22;;;1.40;;
65737;SDS011;52478;51.844;6.582;2023-01-08T07:21:57;4.55;;;1.60;;
65737;SDS011;52478;51.844;6.582;2023-01-08T07:24:25;4.05;;;1.45;;
65737;SDS011;52478;51.844;6.582;2023-01-08T07:26:51;4.88;;;1.38;;
65737;SDS011;52478;51.844;6.582;2023-01-08T07:29:18;3.90;;;1.35;;
65737;SDS011;52478;51.844;6.582;2023-01-08T07:31:44;4.85;;;1.50;;
65737;SDS011;52478;51.844;6.582;2023-01-08T07:34:11;3.50;;;1.23;;
65737;SDS011;52478;51.844;6.582;2023-01-08T07:36:37;4.68;;;1.30;;
65737;SDS011;52478;51.844;6.582;2023-01-08T07:39:04;6.35;;;1.65;;
65737;SDS011;52478;51.844;6.582;2023-01-08T07:41:31;4.75;;;1.38;;
65737;SDS011;52478;51.844;6.582;2023-01-08T07:43:58;4.78;;;1.60;;
65737;SDS011;52478;51.844;6.582;2023-01-08T07:46:24;4.28;;;1.77;;
65737;SDS011;52478;51.844;6.582;2023-01-08T07:48:51;4.28;;;1.40;;
65737;SDS011;52478;51.844;6.582;2023-01-08T07:51:17;4.20;;;1.40;;
65737;SDS011;52478;51.844;6.582;2023-01-08T07:53:44;3.60;;;1.40;;
65737;SDS011;52478;51.844;6.582;2023-01-08T07:56:10;4.70;;;1.92;;
65737;SDS011;52478;51.844;6.582;2023-01-08T07:58:38;5.55;;;1.70;;
65737;SDS011;52478;51.844;6.582;2023-01-08T08:01:06;4.70;;;1.55;;
65737;SDS011;52478;51.844;6.582;2023-01-08T08:03:34;3.40;;;1.30;;
65737;SDS011;52478;51.844;6.582;2023-01-08T08:06:01;4.00;;;1.20;;
65737;SDS011;52478;51.844;6.582;2023-01-08T08:08:27;5.57;;;1.73;;
65737;SDS011;52478;51.844;6.582;2023-01-08T08:10:54;4.70;;;1.60;;
65737;SDS011;52478;51.844;6.582;2023-01-08T08:13:20;4.07;;;1.20;;
65737;SDS011;52478;51.844;6.582;2023-01-08T08:15:48;4.28;;;1.48;;
65737;SDS011;52478;51.844;6.582;2023-01-08T08:18:14;6.68;;;1.63;;
65737;SDS011;52478;51.844;6.582;2023-01-08T08:20:41;6.30;;;1.55;;
65737;SDS011;52478;51.844;6.582;2023-01-08T08:23:08;9.48;;;1.80;;
65737;SDS011;52478;51.844;6.582;2023-01-08T08:25:37;6.32;;;2.05;;
65737;SDS011;52478;51.844;6.582;2023-01-08T08:28:04;9.85;;;1.80;;
65737;SDS011;52478;51.844;6.582;2023-01-08T08:30:32;7.47;;;1.55;;
65737;SDS011;52478;51.844;6.582;2023-01-08T08:33:01;6.30;;;1.52;;
65737;SDS011;52478;51.844;6.582;2023-01-08T08:35:30;5.95;;;1.50;;
65737;SDS011;52478;51.844;6.582;2023-01-08T08:37:57;5.22;;;1.23;;
65737;SDS011;52478;51.844;6.582;2023-01-08T08:40:24;6.82;;;1.70;;
65737;SDS011;52478;51.844;6.582;2023-01-08T08:45:20;4.78;;;1.20;;
65737;SDS011;52478;51.844;6.582;2023-01-08T08:47:46;6.22;;;1.70;;
65737;SDS011;52478;51.844;6.582;2023-01-08T08:50:14;5.75;;;1.80;;
65737;SDS011;52478;51.844;6.582;2023-01-08T08:52:41;5.70;;;1.90;;
65737;SDS011;52478;51.844;6.582;2023-01-08T08:55:08;7.93;;;2.03;;
65737;SDS011;52478;51.844;6.582;2023-01-08T08:57:37;5.45;;;1.67;;
65737;SDS011;52478;51.844;6.582;2023-01-08T09:00:04;5.18;;;1.60;;
65737;SDS011;52478;51.844;6.582;2023-01-08T09:02:31;7.10;;;1.70;;
65737;SDS011;52478;51.844;6.582;2023-01-08T09:04:57;5.78;;;1.60;;
65737;SDS011;52478;51.844;6.582;2023-01-08T09:07:25;8.18;;;1.60;;
65737;SDS011;52478;51.844;6.582;2023-01-08T09:09:52;8.90;;;1.50;;
65737;SDS011;52478;51.844;6.582;2023-01-08T09:12:18;6.55;;;1.88;;
65737;SDS011;52478;51.844;6.582;2023-01-08T09:14:45;4.93;;;1.50;;
65737;SDS011;52478;51.844;6.582;2023-01-08T09:17:14;4.43;;;1.35;;
65737;SDS011;52478;51.844;6.582;2023-01-08T09:19:40;4.85;;;1.20;;
65737;SDS011;52478;51.844;6.582;2023-01-08T09:22:07;4.45;;;1.60;;
65737;SDS011;52478;51.844;6.582;2023-01-08T09:24:35;6.07;;;1.52;;
65737;SDS011;52478;51.844;6.582;2023-01-08T09:27:01;7.55;;;1.30;;
65737;SDS011;52478;51.844;6.582;2023-01-08T09:29:28;4.47;;;1.33;;
65737;SDS011;52478;51.844;6.582;2023-01-08T09:31:54;6.13;;;1.58;;
65737;SDS011;52478;51.844;6.582;2023-01-08T09:34:23;7.32;;;1.80;;
65737;SDS011;52478;51.844;6.582;2023-01-08T09:36:50;8.57;;;2.25;;
65737;SDS011;52478;51.844;6.582;2023-01-08T09:39:17;8.85;;;2.42;;
65737;SDS011;52478;51.844;6.582;2023-01-08T09:41:45;12.05;;;2.08;;
65737;SDS011;52478;51.844;6.582;2023-01-08T09:44:13;12.77;;;2.45;;
65737;SDS011;52478;51.844;6.582;2023-01-08T09:46:42;9.77;;;2.60;;
65737;SDS011;52478;51.844;6.582;2023-01-08T09:49:11;10.85;;;2.45;;
65737;SDS011;52478;51.844;6.582;2023-01-08T09:51:40;6.93;;;2.05;;
65737;SDS011;52478;51.844;6.582;2023-01-08T09:56:38;9.73;;;2.83;;
65737;SDS011;52478;51.844;6.582;2023-01-08T09:59:06;9.32;;;2.15;;
65737;SDS011;52478;51.844;6.582;2023-01-08T10:01:38;6.78;;;1.80;;
65737;SDS011;52478;51.844;6.582;2023-01-08T10:04:11;7.97;;;2.10;;
65737;SDS011;52478;51.844;6.582;2023-01-08T10:06:40;8.02;;;1.90;;
65737;SDS011;52478;51.844;6.582;2023-01-08T10:09:14;9.18;;;2.08;;
65737;SDS011;52478;51.844;6.582;2023-01-08T10:11:41;7.13;;;2.08;;
65737;SDS011;52478;51.844;6.582;2023-01-08T10:14:19;7.45;;;2.05;;
65737;SDS011;52478;51.844;6.582;2023-01-08T10:16:51;8.32;;;2.13;;
65737;SDS011;52478;51.844;6.582;2023-01-08T10:19:21;6.60;;;1.50;;
65737;SDS011;52478;51.844;6.582;2023-01-08T10:21:48;5.30;;;1.50;;
65737;SDS011;52478;51.844;6.582;2023-01-08T10:26:41;8.35;;;1.98;;
65737;SDS011;52478;51.844;6.582;2023-01-08T10:29:10;8.40;;;2.10;;
65737;SDS011;52478;51.844;6.582;2023-01-08T10:31:44;7.15;;;2.30;;
65737;SDS011;52478;51.844;6.582;2023-01-08T10:36:46;5.80;;;1.70;;
65737;SDS011;52478;51.844;6.582;2023-01-08T10:39:15;6.57;;;1.60;;
65737;SDS011;52478;51.844;6.582;2023-01-08T10:41:47;6.38;;;1.58;;
65737;SDS011;52478;51.844;6.582;2023-01-08T10:44:19;6.53;;;1.85;;
65737;SDS011;52478;51.844;6.582;2023-01-08T10:46:48;6.82;;;1.70;;
65737;SDS011;52478;51.844;6.582;2023-01-08T10:49:19;6.97;;;1.92;;
65737;SDS011;52478;51.844;6.582;2023-01-08T10:51:52;7.47;;;1.70;;
65737;SDS011;52478;51.844;6.582;2023-01-08T10:54:24;5.15;;;1.75;;
65737;SDS011;52478;51.844;6.582;2023-01-08T10:56:54;5.80;;;1.40;;
65737;SDS011;52478;51.844;6.582;2023-01-08T10:59:22;5.80;;;1.40;;
65737;SDS011;52478;51.844;6.582;2023-01-08T11:01:50;6.07;;;1.30;;
65737;SDS011;52478;51.844;6.582;2023-01-08T11:04:19;5.78;;;1.60;;
65737;SDS011;52478;51.844;6.582;2023-01-08T11:06:48;6.55;;;1.77;;
65737;SDS011;52478;51.844;6.582;2023-01-08T11:09:17;8.77;;;1.83;;
65737;SDS011;52478;51.844;6.582;2023-01-08T11:11:46;6.18;;;1.58;;
65737;SDS011;52478;51.844;6.582;2023-01-08T11:14:14;6.88;;;1.75;;
65737;SDS011;52478;51.844;6.582;2023-01-08T11:16:46;5.32;;;1.35;;
65737;SDS011;52478;51.844;6.582;2023-01-08T11:19:14;7.22;;;1.70;;
65737;SDS011;52478;51.844;6.582;2023-01-08T11:21:52;5.55;;;1.60;;
65737;SDS011;52478;51.844;6.582;2023-01-08T11:24:21;8.85;;;2.25;;
65737;SDS011;52478;51.844;6.582;2023-01-08T11:26:51;7.13;;;1.40;;
65737;SDS011;52478;51.844;6.582;2023-01-08T11:29:21;6.40;;;2.03;;
65737;SDS011;52478;51.844;6.582;2023-01-08T11:31:54;6.95;;;1.60;;
65737;SDS011;52478;51.844;6.582;2023-01-08T11:34:30;7.03;;;1.77;;
65737;SDS011;52478;51.844;6.582;2023-01-08T11:37:02;5.90;;;1.85;;
65737;SDS011;52478;51.844;6.582;2023-01-08T11:42:08;4.50;;;1.40;;
65737;SDS011;52478;51.844;6.582;2023-01-08T11:44:59;5.63;;;1.50;;
65737;SDS011;52478;51.844;6.582;2023-01-08T11:47:41;4.60;;;1.60;;
65737;SDS011;52478;51.844;6.582;2023-01-08T11:50:18;6.35;;;1.40;;
65737;SDS011;52478;51.844;6.582;2023-01-08T11:52:57;6.90;;;1.50;;
65737;SDS011;52478;51.844;6.582;2023-01-08T11:55:39;5.50;;;1.45;;
65737;SDS011;52478;51.844;6.582;2023-01-08T11:58:18;5.07;;;1.20;;
65737;SDS011;52478;51.844;6.582;2023-01-08T12:00:52;4.65;;;1.35;;
65737;SDS011;52478;51.844;6.582;2023-01-08T12:03:28;5.47;;;1.65;;
65737;SDS011;52478;51.844;6.582;2023-01-08T12:06:02;6.55;;;1.52;;
65737;SDS011;52478;51.844;6.582;2023-01-08T12:08:36;6.15;;;1.73;;
65737;SDS011;52478;51.844;6.582;2023-01-08T12:11:09;5.65;;;1.40;;
65737;SDS011;52478;51.844;6.582;2023-01-08T12:16:43;6.70;;;1.40;;
65737;SDS011;52478;51.844;6.582;2023-01-08T12:19:26;6.13;;;1.77;;
65737;SDS011;52478;51.844;6.582;2023-01-08T12:22:11;8.70;;;1.77;;
65737;SDS011;52478;51.844;6.582;2023-01-08T12:24:56;6.03;;;1.52;;
65737;SDS011;52478;51.844;6.582;2023-01-08T12:27:48;6.57;;;1.52;;
65737;SDS011;52478;51.844;6.582;2023-01-08T12:30:25;4.47;;;1.35;;
65737;SDS011;52478;51.844;6.582;2023-01-08T12:33:02;5.50;;;1.60;;
65737;SDS011;52478;51.844;6.582;2023-01-08T12:35:37;5.57;;;1.30;;
65737;SDS011;52478;51.844;6.582;2023-01-08T12:38:08;7.50;;;1.60;;
65737;SDS011;52478;51.844;6.582;2023-01-08T12:40:37;4.88;;;1.50;;
65737;SDS011;52478;51.844;6.582;2023-01-08T12:43:08;6.65;;;1.88;;
65737;SDS011;52478;51.844;6.582;2023-01-08T12:45:39;8.20;;;1.52;;
65737;SDS011;52478;51.844;6.582;2023-01-08T12:48:10;4.97;;;1.30;;
65737;SDS011;52478;51.844;6.582;2023-01-08T12:50:50;6.10;;;1.40;;
65737;SDS011;52478;51.844;6.582;2023-01-08T12:53:24;7.80;;;1.83;;
65737;SDS011;52478;51.844;6.582;2023-01-08T12:56:01;8.43;;;2.22;;
65737;SDS011;52478;51.844;6.582;2023-01-08T12:58:37;8.30;;;1.60;;
65737;SDS011;52478;51.844;6.582;2023-01-08T13:01:20;6.70;;;1.67;;
65737;SDS011;52478;51.844;6.582;2023-01-08T13:03:56;9.85;;;2.40;;
65737;SDS011;52478;51.844;6.582;2023-01-08T13:06:26;8.68;;;2.10;;
65737;SDS011;52478;51.844;6.582;2023-01-08T13:08:53;6.75;;;1.80;;
65737;SDS011;52478;51.844;6.582;2023-01-08T13:11:25;7.80;;;1.75;;
65737;SDS011;52478;51.844;6.582;2023-01-08T13:13:57;11.00;;;2.20;;
65737;SDS011;52478;51.844;6.582;2023-01-08T13:16:26;8.15;;;2.08;;
65737;SDS011;52478;51.844;6.582;2023-01-08T13:18:54;9.32;;;2.00;;
65737;SDS011;52478;51.844;6.582;2023-01-08T13:21:33;6.57;;;1.85;;
65737;SDS011;52478;51.844;6.582;2023-01-08T13:24:03;6.47;;;1.60;;
65737;SDS011;52478;51.844;6.582;2023-01-08T13:26:33;8.40;;;1.58;;
65737;SDS011;52478;51.844;6.582;2023-01-08T13:31:51;5.97;;;1.50;;
65737;SDS011;52478;51.844;6.582;2023-01-08T13:34:22;7.30;;;1.60;;
65737;SDS011;52478;51.844;6.582;2023-01-08T13:37:02;6.85;;;1.70;;
65737;SDS011;52478;51.844;6.582;2023-01-08T13:39:35;6.53;;;1.80;;
65737;SDS011;52478;51.844;6.582;2023-01-08T13:42:04;7.38;;;1.40;;
65737;SDS011;52478;51.844;6.582;2023-01-08T13:44:46;11.10;;;2.45;;
65737;SDS011;52478;51.844;6.582;2023-01-08T13:47:17;13.70;;;2.60;;
65737;SDS011;52478;51.844;6.582;2023-01-08T13:49:48;9.45;;;2.03;;
65737;SDS011;52478;51.844;6.582;2023-01-08T13:52:32;9.88;;;2.13;;
65737;SDS011;52478;51.844;6.582;2023-01-08T13:55:04;10.13;;;2.05;;
65737;SDS011;52478;51.844;6.582;2023-01-08T13:57:38;8.98;;;1.90;;
65737;SDS011;52478;51.844;6.582;2023-01-08T14:00:13;10.93;;;2.38;;
65737;SDS011;52478;51.844;6.582;2023-01-08T14:02:44;10.70;;;2.30;;
65737;SDS011;52478;51.844;6.582;2023-01-08T14:05:18;13.05;;;2.45;;
65737;SDS011;52478;51.844;6.582;2023-01-08T14:07:49;12.48;;;2.15;;
65737;SDS011;52478;51.844;6.582;2023-01-08T14:10:16;7.60;;;2.03;;
65737;SDS011;52478;51.844;6.582;2023-01-08T14:12:43;9.45;;;1.90;;
65737;SDS011;52478;51.844;6.582;2023-01-08T14:15:15;9.77;;;2.00;;
65737;SDS011;52478;51.844;6.582;2023-01-08T14:17:46;7.88;;;1.60;;
65737;SDS011;52478;51.844;6.582;2023-01-08T14:20:14;9.02;;;2.00;;
65737;SDS011;52478;51.844;6.582;2023-01-08T14:22:49;8.65;;;1.83;;
65737;SDS011;52478;51.844;6.582;2023-01-08T14:25:16;5.85;;;1.65;;
65737;SDS011;52478;51.844;6.582;2023-01-08T14:27:53;7.53;;;2.05;;
65737;SDS011;52478;51.844;6.582;2023-01-08T14:30:20;8.77;;;2.25;;
65737;SDS011;52478;51.844;6.582;2023-01-08T14:32:47;8.60;;;2.17;;
65737;SDS011;52478;51.844;6.582;2023-01-08T14:37:42;8.35;;;1.92;;
65737;SDS011;52478;51.844;6.582;2023-01-08T14:40:13;7.63;;;1.92;;
65737;SDS011;52478;51.844;6.582;2023-01-08T14:42:41;6.60;;;2.10;;
65737;SDS011;52478;51.844;6.582;2023-01-08T14:45:13;7.88;;;2.25;;
65737;SDS011;52478;51.844;6.582;2023-01-08T14:47:44;7.68;;;1.77;;
65737;SDS011;52478;51.844;6.582;2023-01-08T14:50:17;9.07;;;1.77;;
65737;SDS011;52478;51.844;6.582;2023-01-08T14:52:45;7.28;;;1.98;;
65737;SDS011;52478;51.844;6.582;2023-01-08T14:55:14;8.43;;;2.25;;
65737;SDS011;52478;51.844;6.582;2023-01-08T14:57:43;6.85;;;2.30;;
65737;SDS011;52478;51.844;6.582;2023-01-08T15:00:14;7.10;;;1.85;;
65737;SDS011;52478;51.844;6.582;2023-01-08T15:02:43;6.50;;;1.50;;
65737;SDS011;52478;51.844;6.582;2023-01-08T15:05:12;8.25;;;1.75;;
65737;SDS011;52478;51.844;6.582;2023-01-08T15:07:41;6.65;;;1.65;;
65737;SDS011;52478;51.844;6.582;2023-01-08T15:10:27;6.22;;;1.58;;
65737;SDS011;52478;51.844;6.582;2023-01-08T15:13:01;7.60;;;2.00;;
65737;SDS011;52478;51.844;6.582;2023-01-08T15:15:31;6.63;;;1.40;;
65737;SDS011;52478;51.844;6.582;2023-01-08T15:17:59;7.95;;;1.80;;
65737;SDS011;52478;51.844;6.582;2023-01-08T15:20:28;7.88;;;1.77;;
65737;SDS011;52478;51.844;6.582;2023-01-08T15:22:56;7.47;;;1.73;;
65737;SDS011;52478;51.844;6.582;2023-01-08T15:25:25;7.18;;;1.80;;
65737;SDS011;52478;51.844;6.582;2023-01-08T15:27:55;5.32;;;1.42;;
65737;SDS011;52478;51.844;6.582;2023-01-08T15:30:24;7.32;;;1.52;;